createdAt,value
2023-05-04T00:00:10.181Z,9.747431
2023-05-04T00:01:10.162Z,9.747296
2023-05-04T00:02:10.152Z,9.747345
2023-05-04T00:03:10.215Z,9.747334
2023-05-04T00:04:10.269Z,9.747397
2023-05-04T00:05:10.103Z,9.747385
2023-05-04T00:06:10.187Z,9.747478
2023-05-04T00:07:10.088Z,9.747422
2023-05-04T00:08:10.137Z,9.747398
2023-05-04T00:09:11.108Z,9.747349
2023-05-04T00:10:10.078Z,9.747345
2023-05-04T00:11:10.080Z,9.747415
2023-05-04T00:12:10.050Z,9.747272
2023-05-04T00:13:10.210Z,9.747401
2023-05-04T00:14:10.040Z,9.747416
2023-05-04T00:15:10.036Z,9.747377
2023-05-04T00:16:11.068Z,9.747416
2023-05-04T00:17:11.006Z,9.747389
2023-05-04T00:18:10.000Z,9.747489
2023-05-04T00:19:10.257Z,9.747399
2023-05-04T00:20:10.018Z,9.747413
2023-05-04T00:21:10.004Z,9.747396
2023-05-04T00:22:09.993Z,9.747354
2023-05-04T00:23:09.970Z,9.747293
2023-05-04T00:24:09.960Z,9.747360
2023-05-04T00:25:09.978Z,9.747316
2023-05-04T00:26:10.017Z,9.747377
2023-05-04T00:27:09.948Z,9.747462
2023-05-04T00:28:09.931Z,9.747524
2023-05-04T00:29:10.005Z,9.747447
2023-05-04T00:30:09.935Z,9.747455
2023-05-04T00:31:09.946Z,9.747429
2023-05-04T00:32:09.905Z,9.747374
2023-05-04T00:33:09.930Z,9.747458
2023-05-04T00:34:09.894Z,9.747329
2023-05-04T00:35:09.879Z,9.747384
2023-05-04T00:36:09.894Z,9.747443
2023-05-04T00:37:09.870Z,9.747354
2023-05-04T00:38:09.859Z,9.747373
2023-05-04T00:39:09.852Z,9.747416
2023-05-04T00:40:09.869Z,9.747425
2023-05-04T00:41:09.861Z,9.747412
2023-05-04T00:42:09.826Z,9.747315
2023-05-04T00:43:09.816Z,9.747336
2023-05-04T00:44:09.815Z,9.747334
2023-05-04T00:45:09.877Z,9.747417
2023-05-04T00:46:09.877Z,9.747404
2023-05-04T00:47:09.800Z,9.747497
2023-05-04T00:48:09.834Z,9.747663
2023-05-04T00:49:09.777Z,9.747532
2023-05-04T00:50:09.785Z,9.747554
2023-05-04T00:51:09.792Z,9.747456
2023-05-04T00:52:09.751Z,9.747477
2023-05-04T00:53:09.762Z,9.747562
2023-05-04T00:54:09.742Z,9.747596
2023-05-04T00:55:09.737Z,9.747558
2023-05-04T00:56:09.746Z,9.747633
2023-05-04T00:57:09.730Z,9.747538
2023-05-04T00:58:09.711Z,9.747456
2023-05-04T00:59:09.698Z,9.747418
2023-05-04T01:00:09.701Z,9.747478
2023-05-04T01:01:09.753Z,9.747465
2023-05-04T01:02:09.692Z,9.747494
2023-05-04T01:03:09.793Z,9.747616
2023-05-04T01:04:09.819Z,9.747528
2023-05-04T01:05:09.656Z,9.747537
2023-05-04T01:06:09.675Z,9.747535
2023-05-04T01:07:10.160Z,9.747466
2023-05-04T01:08:09.647Z,9.747264
2023-05-04T01:09:09.629Z,9.747449
2023-05-04T01:10:09.615Z,9.747433
2023-05-04T01:11:09.643Z,9.747556
2023-05-04T01:12:09.615Z,9.747530
2023-05-04T01:13:09.688Z,9.747513
2023-05-04T01:14:09.588Z,9.747533
2023-05-04T01:15:09.588Z,9.747428
2023-05-04T01:16:09.626Z,9.747476
2023-05-04T01:17:09.726Z,9.747584
2023-05-04T01:18:09.647Z,9.747644
2023-05-04T01:19:09.553Z,9.747378
2023-05-04T01:20:09.563Z,9.747334
2023-05-04T01:21:09.567Z,9.747433
2023-05-04T01:22:09.518Z,9.747540
2023-05-04T01:23:10.521Z,9.747385
2023-05-04T01:24:09.522Z,9.747439
2023-05-04T01:25:09.508Z,9.747336
2023-05-04T01:26:09.518Z,9.747437
2023-05-04T01:27:09.496Z,9.747409
2023-05-04T01:28:09.533Z,9.747396
2023-05-04T01:29:09.480Z,9.747315
2023-05-04T01:30:09.471Z,9.747383
2023-05-04T01:31:09.519Z,9.747474
2023-05-04T01:32:09.454Z,9.747638
2023-05-04T01:33:09.491Z,9.747659
2023-05-04T01:34:09.438Z,9.747496
2023-05-04T01:35:09.468Z,9.747554
2023-05-04T01:36:09.468Z,9.747521
2023-05-04T01:37:09.433Z,9.747506
2023-05-04T01:38:09.417Z,9.747521
2023-05-04T01:39:09.411Z,9.747530
2023-05-04T01:40:09.432Z,9.747351
2023-05-04T01:41:09.383Z,9.747423
2023-05-04T01:42:09.385Z,9.747420
2023-05-04T01:43:09.371Z,9.747316
2023-05-04T01:44:09.383Z,9.747360
2023-05-04T01:45:10.417Z,9.747416
2023-05-04T01:46:09.418Z,9.747480
2023-05-04T01:47:09.338Z,9.747359
2023-05-04T01:48:09.370Z,9.747362
2023-05-04T01:49:09.384Z,9.747519
2023-05-04T01:50:09.318Z,9.747477
2023-05-04T01:51:09.327Z,9.747397
2023-05-04T01:52:09.307Z,9.747416
2023-05-04T01:53:09.284Z,9.747404
2023-05-04T01:54:09.295Z,9.747440
2023-05-04T01:55:09.264Z,9.747407
2023-05-04T01:56:10.300Z,9.747507
2023-05-04T01:57:09.250Z,9.747536
2023-05-04T01:58:09.276Z,9.747516
2023-05-04T01:59:09.260Z,9.747826
2023-05-04T02:00:09.274Z,9.747849
2023-05-04T02:01:09.326Z,9.747576
2023-05-04T02:02:09.234Z,9.747539
2023-05-04T02:03:09.320Z,9.747529
2023-05-04T02:04:09.262Z,9.747458
2023-05-04T02:05:09.219Z,9.747484
2023-05-04T02:06:09.205Z,9.747447
2023-05-04T02:07:09.185Z,9.747478
2023-05-04T02:08:09.168Z,9.747416
2023-05-04T02:09:09.168Z,9.747432
2023-05-04T02:10:09.177Z,9.747429
2023-05-04T02:11:09.174Z,9.747559
2023-05-04T02:12:09.144Z,9.747299
2023-05-04T02:13:09.187Z,9.747471
2023-05-04T02:14:09.122Z,9.747356
2023-05-04T02:15:09.163Z,9.747349
2023-05-04T02:16:09.161Z,9.747429
2023-05-04T02:17:09.108Z,9.747252
2023-05-04T02:18:09.157Z,9.747236
2023-05-04T02:19:09.087Z,9.747329
2023-05-04T02:20:09.107Z,9.747323
2023-05-04T02:21:09.087Z,9.747470
2023-05-04T02:22:09.095Z,9.747615
2023-05-04T02:23:09.065Z,9.747574
2023-05-04T02:24:09.068Z,9.747440
2023-05-04T02:25:09.072Z,9.747437
2023-05-04T02:26:09.038Z,9.747545
2023-05-04T02:27:09.100Z,9.747615
2023-05-04T02:28:09.029Z,9.747593
2023-05-04T02:29:09.025Z,9.747591
2023-05-04T02:30:09.061Z,9.747575
2023-05-04T02:31:09.036Z,9.747623
2023-05-04T02:32:09.000Z,9.747654
2023-05-04T02:33:08.995Z,9.747450
2023-05-04T02:34:08.986Z,9.747629
2023-05-04T02:35:09.001Z,9.747415
2023-05-04T02:36:08.988Z,9.747602
2023-05-04T02:37:08.955Z,9.747456
2023-05-04T02:38:08.952Z,9.747542
2023-05-04T02:39:08.941Z,9.747495
2023-05-04T02:40:08.957Z,9.747467
2023-05-04T02:41:08.942Z,9.747519
2023-05-04T02:42:08.926Z,9.747407
2023-05-04T02:43:08.905Z,9.747300
2023-05-04T02:44:08.907Z,9.747334
2023-05-04T02:45:08.924Z,9.747350
2023-05-04T02:46:08.914Z,9.747398
2023-05-04T02:47:08.876Z,9.747521
2023-05-04T02:48:08.991Z,9.747478
2023-05-04T02:49:08.865Z,9.747455
2023-05-04T02:50:08.992Z,9.747520
2023-05-04T02:51:08.856Z,9.747423
2023-05-04T02:52:08.856Z,9.747554
2023-05-04T02:53:08.826Z,9.747551
2023-05-04T02:54:08.828Z,9.747545
2023-05-04T02:55:08.850Z,9.747445
2023-05-04T02:56:08.825Z,9.747471
2023-05-04T02:57:08.805Z,9.747528
2023-05-04T02:58:08.802Z,9.747413
2023-05-04T02:59:08.790Z,9.747453
2023-05-04T03:00:08.813Z,9.747510
2023-05-04T03:01:08.810Z,9.747553
2023-05-04T03:02:08.783Z,9.747462
2023-05-04T03:03:08.777Z,9.747514
2023-05-04T03:04:08.781Z,9.747377
2023-05-04T03:05:08.820Z,9.747469
2023-05-04T03:06:08.750Z,9.747342
2023-05-04T03:07:08.738Z,9.747534
2023-05-04T03:08:08.732Z,9.747558
2023-05-04T03:09:08.798Z,9.747483
2023-05-04T03:10:08.965Z,9.747493
2023-05-04T03:11:08.703Z,9.747612
2023-05-04T03:12:08.749Z,9.747331
2023-05-04T03:13:08.772Z,9.747376
2023-05-04T03:14:08.690Z,9.747448
2023-05-04T03:15:08.715Z,9.747332
2023-05-04T03:16:08.705Z,9.747418
2023-05-04T03:17:08.730Z,9.747417
2023-05-04T03:18:08.679Z,9.747308
2023-05-04T03:19:08.687Z,9.747389
2023-05-04T03:20:08.771Z,9.747346
2023-05-04T03:21:34.064Z,9.747283
2023-05-04T03:22:08.618Z,9.747340
2023-05-04T03:23:08.616Z,9.747242
2023-05-04T03:24:08.722Z,9.747305
2023-05-04T03:25:08.670Z,9.747314
2023-05-04T03:26:08.587Z,9.747392
2023-05-04T03:27:08.580Z,9.747257
2023-05-04T03:28:08.587Z,9.747137
2023-05-04T03:29:08.573Z,9.747236
2023-05-04T03:30:08.595Z,9.747354
2023-05-04T03:31:08.559Z,9.747490
2023-05-04T03:32:08.615Z,9.747401
2023-05-04T03:33:08.632Z,9.747293
2023-05-04T03:34:08.536Z,9.747243
2023-05-04T03:35:08.561Z,9.747269
2023-05-04T03:36:08.519Z,9.747386
2023-05-04T03:37:08.526Z,9.747298
2023-05-04T03:38:08.506Z,9.747473
2023-05-04T03:39:08.499Z,9.747375
2023-05-04T03:40:08.524Z,9.747152
2023-05-04T03:41:08.496Z,9.747295
2023-05-04T03:42:08.477Z,9.747406
2023-05-04T03:43:08.466Z,9.747424
2023-05-04T03:44:08.466Z,9.747352
2023-05-04T03:45:08.492Z,9.747374
2023-05-04T03:46:08.513Z,9.747411
2023-05-04T03:47:08.443Z,9.747210
2023-05-04T03:48:08.468Z,9.747315
2023-05-04T03:49:08.433Z,9.747365
2023-05-04T03:50:08.450Z,9.747362
2023-05-04T03:51:08.407Z,9.747433
2023-05-04T03:52:08.408Z,9.747539
2023-05-04T03:53:08.402Z,9.747394
2023-05-04T03:54:08.380Z,9.747414
2023-05-04T03:55:08.396Z,9.747391
2023-05-04T03:56:08.421Z,9.747253
2023-05-04T03:57:08.369Z,9.747207
2023-05-04T03:58:08.361Z,9.747345
2023-05-04T03:59:08.358Z,9.747451
2023-05-04T04:00:08.360Z,9.747459
2023-05-04T04:01:08.344Z,9.747312
2023-05-04T04:02:08.386Z,9.747435
2023-05-04T04:03:08.494Z,9.747383
2023-05-04T04:04:08.409Z,9.747215
2023-05-04T04:05:08.339Z,9.747334
2023-05-04T04:06:08.303Z,9.747386
2023-05-04T04:07:08.303Z,9.747380
2023-05-04T04:08:08.282Z,9.747426
2023-05-04T04:09:08.273Z,9.747345
2023-05-04T04:10:08.295Z,9.747402
2023-05-04T04:11:08.258Z,9.747209
2023-05-04T04:12:08.262Z,9.747452
2023-05-04T04:13:08.281Z,9.747301
2023-05-04T04:14:08.240Z,9.747207
2023-05-04T04:15:08.231Z,9.747419
2023-05-04T04:16:08.273Z,9.747499
2023-05-04T04:17:08.256Z,9.747416
2023-05-04T04:18:08.359Z,9.747314
2023-05-04T04:19:08.209Z,9.747458
2023-05-04T04:20:08.340Z,9.747465
2023-05-04T04:21:08.222Z,9.747407
2023-05-04T04:22:08.173Z,9.747424
2023-05-04T04:23:08.173Z,9.747463
2023-05-04T04:24:08.176Z,9.747364
2023-05-04T04:25:08.153Z,9.747360
2023-05-04T04:26:08.193Z,9.747260
2023-05-04T04:27:08.183Z,9.747373
2023-05-04T04:28:08.130Z,9.747522
2023-05-04T04:29:08.140Z,9.747481
2023-05-04T04:30:08.166Z,9.747409
2023-05-04T04:31:08.204Z,9.747353
2023-05-04T04:32:08.106Z,9.747448
2023-05-04T04:33:08.215Z,9.747447
2023-05-04T04:34:08.078Z,9.747345
2023-05-04T04:35:08.100Z,9.747330
2023-05-04T04:36:08.076Z,9.747391
2023-05-04T04:37:08.059Z,9.747355
2023-05-04T04:38:08.052Z,9.747364
2023-05-04T04:39:08.057Z,9.747343
2023-05-04T04:40:08.068Z,9.747363
2023-05-04T04:41:08.032Z,9.747410
2023-05-04T04:42:08.026Z,9.747345
2023-05-04T04:43:08.015Z,9.747367
2023-05-04T04:44:08.007Z,9.747375
2023-05-04T04:45:08.028Z,9.747409
2023-05-04T04:46:08.012Z,9.747417
2023-05-04T04:47:07.988Z,9.747370
2023-05-04T04:48:08.035Z,9.747476
2023-05-04T04:49:07.970Z,9.747377
2023-05-04T04:50:08.195Z,9.747448
2023-05-04T04:51:07.960Z,9.747342
2023-05-04T04:52:07.973Z,9.747310
2023-05-04T04:53:08.005Z,9.747352
2023-05-04T04:54:07.940Z,9.747465
2023-05-04T04:55:07.982Z,9.747302
2023-05-04T04:56:07.954Z,9.747356
2023-05-04T04:57:07.918Z,9.747363
2023-05-04T04:58:07.936Z,9.747346
2023-05-04T04:59:07.934Z,9.747327
2023-05-04T05:00:07.967Z,9.747322
2023-05-04T05:01:07.962Z,9.747373
2023-05-04T05:02:07.875Z,9.747439
2023-05-04T05:03:07.948Z,9.747358
2023-05-04T05:04:07.874Z,9.747285
2023-05-04T05:05:08.041Z,9.747356
2023-05-04T05:06:07.849Z,9.747408
2023-05-04T05:07:07.847Z,9.747359
2023-05-04T05:08:07.845Z,9.747283
2023-05-04T05:09:07.825Z,9.747358
2023-05-04T05:10:07.999Z,9.747424
2023-05-04T05:11:07.859Z,9.747169
2023-05-04T05:12:07.800Z,9.747265
2023-05-04T05:13:07.857Z,9.747284
2023-05-04T05:14:07.795Z,9.747379
2023-05-04T05:15:07.801Z,9.747381
2023-05-04T05:16:07.799Z,9.747525
2023-05-04T05:17:07.816Z,9.747404
2023-05-04T05:18:08.819Z,9.747473
2023-05-04T05:19:07.756Z,9.747409
2023-05-04T05:20:07.847Z,9.747369
2023-05-04T05:21:07.781Z,9.747375
2023-05-04T05:22:07.731Z,9.747340
2023-05-04T05:23:07.727Z,9.747286
2023-05-04T05:24:07.725Z,9.747223
2023-05-04T05:25:07.734Z,9.747250
2023-05-04T05:26:07.726Z,9.747364
2023-05-04T05:27:07.689Z,9.747387
2023-05-04T05:28:07.685Z,9.747426
2023-05-04T05:29:07.675Z,9.747527
2023-05-04T05:30:07.925Z,9.747495
2023-05-04T05:31:07.831Z,9.747491
2023-05-04T05:32:07.669Z,9.747451
2023-05-04T05:33:07.690Z,9.747486
2023-05-04T05:34:07.628Z,9.747453
2023-05-04T05:35:07.673Z,9.747441
2023-05-04T05:36:07.695Z,9.747476
2023-05-04T05:37:40.097Z,9.747408
2023-05-04T05:38:07.623Z,9.747454
2023-05-04T05:39:07.600Z,9.747420
2023-05-04T05:40:07.805Z,9.747501
2023-05-04T05:41:07.612Z,9.747381
2023-05-04T05:42:07.577Z,9.747453
2023-05-04T05:43:07.569Z,9.747454
2023-05-04T05:44:07.600Z,9.747631
2023-05-04T05:45:07.549Z,9.747529
2023-05-04T05:46:07.595Z,9.747461
2023-05-04T05:47:07.548Z,9.747581
2023-05-04T05:48:07.718Z,9.747532
2023-05-04T05:49:07.560Z,9.747443
2023-05-04T05:50:07.785Z,9.747500
2023-05-04T05:51:07.540Z,9.747460
2023-05-04T05:52:07.505Z,9.747483
2023-05-04T05:53:07.502Z,9.747382
2023-05-04T05:54:07.494Z,9.747311
2023-05-04T05:55:07.492Z,9.747506
2023-05-04T05:56:07.504Z,9.747440
2023-05-04T05:57:07.491Z,9.747392
2023-05-04T05:58:07.474Z,9.747442
2023-05-04T05:59:07.461Z,9.747548
2023-05-04T06:00:07.569Z,9.747472
2023-05-04T06:01:07.472Z,9.747525
2023-05-04T06:02:07.445Z,9.747449
2023-05-04T06:03:07.503Z,9.747452
2023-05-04T06:04:07.599Z,9.747531
2023-05-04T06:05:07.423Z,9.747538
2023-05-04T06:06:07.425Z,9.747552
2023-05-04T06:07:07.402Z,9.747437
2023-05-04T06:08:07.384Z,9.747385
2023-05-04T06:09:07.376Z,9.747274
2023-05-04T06:10:07.531Z,9.747470
2023-05-04T06:11:07.415Z,9.747577
2023-05-04T06:12:07.358Z,9.747574
2023-05-04T06:13:08.270Z,9.747438
2023-05-04T06:14:07.345Z,9.747572
2023-05-04T06:15:07.333Z,9.747527
2023-05-04T06:16:07.409Z,9.747595
2023-05-04T06:17:07.321Z,9.747473
2023-05-04T06:18:07.351Z,9.747508
2023-05-04T06:19:07.320Z,9.747562
2023-05-04T06:20:07.418Z,9.747570
2023-05-04T06:21:07.309Z,9.747460
2023-05-04T06:22:07.285Z,9.747446
2023-05-04T06:23:07.269Z,9.747577
2023-05-04T06:24:07.276Z,9.747549
2023-05-04T06:25:08.335Z,9.747639
2023-05-04T06:26:08.265Z,9.747623
2023-05-04T06:27:07.243Z,9.747524
2023-05-04T06:28:07.230Z,9.747481
2023-05-04T06:29:07.276Z,9.747503
2023-05-04T06:30:07.569Z,9.747545
2023-05-04T06:31:07.269Z,9.747462
2023-05-04T06:32:07.267Z,9.747504
2023-05-04T06:33:07.278Z,9.747538
2023-05-04T06:34:07.180Z,9.747602
2023-05-04T06:35:07.176Z,9.747520
2023-05-04T06:36:07.186Z,9.747416
2023-05-04T06:37:07.265Z,9.747352
2023-05-04T06:38:07.206Z,9.747597
2023-05-04T06:39:07.140Z,9.747560
2023-05-04T06:40:07.164Z,9.747520
2023-05-04T06:41:07.216Z,9.747404
2023-05-04T06:42:07.134Z,9.747532
2023-05-04T06:43:07.119Z,9.747486
2023-05-04T06:44:07.121Z,9.747513
2023-05-04T06:45:07.105Z,9.747486
2023-05-04T06:46:07.176Z,9.747557
2023-05-04T06:47:07.113Z,9.747680
2023-05-04T06:48:07.099Z,9.747568
2023-05-04T06:49:07.075Z,9.747560
2023-05-04T06:50:07.133Z,9.747474
2023-05-04T06:51:07.095Z,9.747438
2023-05-04T06:52:07.046Z,9.747410
2023-05-04T06:53:07.040Z,9.747607
2023-05-04T06:54:07.050Z,9.747596
2023-05-04T06:55:07.027Z,9.747542
2023-05-04T06:56:08.040Z,9.747519
2023-05-04T06:57:07.029Z,9.747570
2023-05-04T06:58:07.004Z,9.747564
2023-05-04T06:59:07.006Z,9.747561
2023-05-04T07:00:07.048Z,9.747701
2023-05-04T07:01:07.076Z,9.747566
2023-05-04T07:02:06.976Z,9.747540
2023-05-04T07:03:07.038Z,9.747671
2023-05-04T07:04:07.097Z,9.747630
2023-05-04T07:05:06.950Z,9.747709
2023-05-04T07:06:06.959Z,9.747727
2023-05-04T07:07:06.943Z,9.747688
2023-05-04T07:08:06.933Z,9.747834
2023-05-04T07:09:06.918Z,9.747528
2023-05-04T07:10:07.017Z,9.747647
2023-05-04T07:11:06.922Z,9.747668
2023-05-04T07:12:06.890Z,9.747508
2023-05-04T07:13:07.074Z,9.747542
2023-05-04T07:14:07.916Z,9.747458
2023-05-04T07:15:06.952Z,9.747451
2023-05-04T07:16:06.932Z,9.747533
2023-05-04T07:17:06.847Z,9.747537
2023-05-04T07:18:07.867Z,9.747543
2023-05-04T07:19:06.837Z,9.747519
2023-05-04T07:20:06.960Z,9.747550
2023-05-04T07:21:25.894Z,9.747602
2023-05-04T07:22:08.821Z,9.747415
2023-05-04T07:23:06.801Z,9.747358
2023-05-04T07:24:06.798Z,9.747686
2023-05-04T07:25:06.800Z,9.747735
2023-05-04T07:26:06.821Z,9.747625
2023-05-04T07:27:06.783Z,9.747566
2023-05-04T07:28:06.763Z,9.747587
2023-05-04T07:29:06.752Z,9.747890
2023-05-04T07:30:06.931Z,9.747717
2023-05-04T07:31:06.763Z,9.747563
2023-05-04T07:32:06.758Z,9.747510
2023-05-04T07:33:06.795Z,9.747528
2023-05-04T07:34:06.721Z,9.747675
2023-05-04T07:35:06.732Z,9.747507
2023-05-04T07:36:06.709Z,9.747437
2023-05-04T07:37:06.698Z,9.747556
2023-05-04T07:38:06.685Z,9.747656
2023-05-04T07:39:06.677Z,9.747478
2023-05-04T07:40:06.898Z,9.747536
2023-05-04T07:41:06.668Z,9.747481
2023-05-04T07:42:06.680Z,9.747501
2023-05-04T07:43:06.648Z,9.747614
2023-05-04T07:44:06.638Z,9.747521
2023-05-04T07:45:06.662Z,9.747421
2023-05-04T07:46:06.650Z,9.747481
2023-05-04T07:47:06.623Z,9.747325
2023-05-04T07:48:06.652Z,9.747416
2023-05-04T07:49:06.594Z,9.747540
2023-05-04T07:50:06.782Z,9.747581
2023-05-04T07:51:06.611Z,9.747547
2023-05-04T07:52:06.578Z,9.747512
2023-05-04T07:53:06.574Z,9.747521
2023-05-04T07:54:06.573Z,9.747471
2023-05-04T07:55:06.576Z,9.747378
2023-05-04T07:56:06.549Z,9.747373
2023-05-04T07:57:06.547Z,9.747269
2023-05-04T07:58:06.691Z,9.747315
2023-05-04T07:59:06.559Z,9.747227
2023-05-04T08:00:06.807Z,9.747593
2023-05-04T08:01:06.521Z,9.747556
2023-05-04T08:02:06.548Z,9.747452
2023-05-04T08:03:06.553Z,9.747439
2023-05-04T08:04:06.487Z,9.747516
2023-05-04T08:05:06.507Z,9.747484
2023-05-04T08:06:06.490Z,9.747427
2023-05-04T08:07:06.678Z,9.747390
2023-05-04T08:08:06.464Z,9.747396
2023-05-04T08:09:06.463Z,9.747491
2023-05-04T08:10:06.724Z,9.747433
2023-05-04T08:11:19.397Z,9.747379
2023-05-04T08:12:08.431Z,9.747336
2023-05-04T08:13:06.510Z,9.747293
2023-05-04T08:14:06.486Z,9.747237
2023-05-04T08:15:06.568Z,9.747405
2023-05-04T08:16:06.412Z,9.747420
2023-05-04T08:17:06.406Z,9.747366
2023-05-04T08:18:06.451Z,9.747437
2023-05-04T08:19:06.380Z,9.747384
2023-05-04T08:20:06.378Z,9.747396
2023-05-04T08:21:06.387Z,9.747437
2023-05-04T08:22:06.356Z,9.747396
2023-05-04T08:23:06.450Z,9.747389
2023-05-04T08:24:06.337Z,9.747512
2023-05-04T08:25:06.571Z,9.747477
2023-05-04T08:26:06.350Z,9.747473
2023-05-04T08:27:08.371Z,9.747465
2023-05-04T08:28:07.321Z,9.747491
2023-05-04T08:29:06.306Z,9.747385
2023-05-04T08:30:06.299Z,9.747326
2023-05-04T08:31:06.316Z,9.747235
2023-05-04T08:32:06.400Z,9.747286
2023-05-04T08:33:06.316Z,9.747310
2023-05-04T08:34:06.286Z,9.747322
2023-05-04T08:35:06.454Z,9.747320
2023-05-04T08:36:06.296Z,9.747328
2023-05-04T08:37:06.281Z,9.747366
2023-05-04T08:38:06.252Z,9.747290
2023-05-04T08:39:06.239Z,9.747308
2023-05-04T08:40:06.254Z,9.747328
2023-05-04T08:41:06.214Z,9.747328
2023-05-04T08:42:06.217Z,9.747335
2023-05-04T08:43:06.202Z,9.747395
2023-05-04T08:44:06.299Z,9.747443
2023-05-04T08:45:06.455Z,9.747481
2023-05-04T08:46:06.207Z,9.747445
2023-05-04T08:47:06.198Z,9.747355
2023-05-04T08:48:06.228Z,9.747414
2023-05-04T08:49:06.184Z,9.747410
2023-05-04T08:50:06.151Z,9.747397
2023-05-04T08:51:06.142Z,9.747478
2023-05-04T08:52:06.134Z,9.747499
2023-05-04T08:53:06.124Z,9.747552
2023-05-04T08:54:06.150Z,9.747437
2023-05-04T08:55:06.373Z,9.747270
2023-05-04T08:56:06.100Z,9.747421
2023-05-04T08:57:06.102Z,9.747406
2023-05-04T08:58:06.113Z,9.747311
2023-05-04T08:59:06.101Z,9.747303
2023-05-04T09:00:06.068Z,9.747392
2023-05-04T09:01:06.179Z,9.747416
2023-05-04T09:02:06.310Z,9.747498
2023-05-04T09:03:06.134Z,9.747512
2023-05-04T09:04:06.062Z,9.747459
2023-05-04T09:05:06.214Z,9.747463
2023-05-04T09:06:06.028Z,9.747466
2023-05-04T09:07:06.020Z,9.747414
2023-05-04T09:08:06.035Z,9.747354
2023-05-04T09:09:06.008Z,9.747386
2023-05-04T09:10:05.983Z,9.747409
2023-05-04T09:11:06.002Z,9.747478
2023-05-04T09:12:06.008Z,9.747500
2023-05-04T09:13:06.116Z,9.747507
2023-05-04T09:14:06.063Z,9.747436
2023-05-04T09:15:06.479Z,9.747363
2023-05-04T09:16:05.953Z,9.747417
2023-05-04T09:17:06.039Z,9.747314
2023-05-04T09:18:05.969Z,9.747248
2023-05-04T09:19:05.926Z,9.747330
2023-05-04T09:20:05.917Z,9.747380
2023-05-04T09:21:05.910Z,9.747386
2023-05-04T09:22:05.920Z,9.747410
2023-05-04T09:23:05.889Z,9.747377
2023-05-04T09:24:05.929Z,9.747430
2023-05-04T09:25:06.082Z,9.747493
2023-05-04T09:26:05.876Z,9.747401
2023-05-04T09:27:05.901Z,9.747307
2023-05-04T09:28:05.869Z,9.747402
2023-05-04T09:29:05.848Z,9.747458
2023-05-04T09:30:05.882Z,9.747388
2023-05-04T09:31:05.882Z,9.747305
2023-05-04T09:32:05.848Z,9.747462
2023-05-04T09:33:05.883Z,9.747469
2023-05-04T09:34:05.883Z,9.747480
2023-05-04T09:35:06.067Z,9.747276
2023-05-04T09:36:05.817Z,9.747422
2023-05-04T09:37:05.787Z,9.747443
2023-05-04T09:38:05.810Z,9.747242
2023-05-04T09:39:05.779Z,9.747493
2023-05-04T09:40:05.760Z,9.747634
2023-05-04T09:41:05.790Z,9.747364
2023-05-04T09:42:05.753Z,9.747492
2023-05-04T09:43:06.822Z,9.747498
2023-05-04T09:44:05.736Z,9.747478
2023-05-04T09:45:05.877Z,9.747473
2023-05-04T09:46:05.801Z,9.747355
2023-05-04T09:47:05.746Z,9.747375
2023-05-04T09:48:05.754Z,9.747535
2023-05-04T09:49:05.684Z,9.747493
2023-05-04T09:50:05.907Z,9.747485
2023-05-04T09:51:05.822Z,9.747398
2023-05-04T09:52:05.702Z,9.747360
2023-05-04T09:53:05.683Z,9.747512
2023-05-04T09:54:05.681Z,9.747537
2023-05-04T09:55:05.968Z,9.747395
2023-05-04T09:56:07.990Z,9.747396
2023-05-04T09:57:05.652Z,9.747357
2023-05-04T09:58:05.700Z,9.747336
2023-05-04T09:59:05.625Z,9.747484
2023-05-04T10:00:05.640Z,9.747403
2023-05-04T10:01:05.632Z,9.747485
2023-05-04T10:02:14.522Z,9.747457
2023-05-04T10:03:07.611Z,9.747401
2023-05-04T10:04:05.575Z,9.747311
2023-05-04T10:05:05.734Z,9.747472
2023-05-04T10:06:05.640Z,9.747490
2023-05-04T10:07:05.555Z,9.747573
2023-05-04T10:08:05.569Z,9.747533
2023-05-04T10:09:05.559Z,9.747602
2023-05-04T10:10:05.555Z,9.747791
2023-05-04T10:11:05.530Z,9.747527
2023-05-04T10:12:05.514Z,9.747521
2023-05-04T10:13:05.544Z,9.747535
2023-05-04T10:14:05.520Z,9.747543
2023-05-04T10:15:05.581Z,9.747472
2023-05-04T10:16:05.537Z,9.747525
2023-05-04T10:17:05.472Z,9.747466
2023-05-04T10:18:05.489Z,9.747377
2023-05-04T10:19:05.480Z,9.747414
2023-05-04T10:20:05.456Z,9.747476
2023-05-04T10:21:05.452Z,9.747456
2023-05-04T10:22:05.520Z,9.747507
2023-05-04T10:23:05.450Z,9.747427
2023-05-04T10:24:05.449Z,9.747384
2023-05-04T10:25:05.771Z,9.747359
2023-05-04T10:26:05.416Z,9.747393
2023-05-04T10:27:05.392Z,9.747423
2023-05-04T10:28:05.418Z,9.747535
2023-05-04T10:29:06.390Z,9.747522
2023-05-04T10:30:05.377Z,9.747666
2023-05-04T10:31:05.365Z,9.747513
2023-05-04T10:32:05.497Z,9.747527
2023-05-04T10:33:05.439Z,9.747766
2023-05-04T10:34:05.348Z,9.747603
2023-05-04T10:35:05.642Z,9.747643
2023-05-04T10:36:05.343Z,9.747581
2023-05-04T10:37:05.330Z,9.747475
2023-05-04T10:38:05.340Z,9.747540
2023-05-04T10:39:05.383Z,9.747700
2023-05-04T10:40:07.314Z,9.747563
2023-05-04T10:41:05.305Z,9.747556
2023-05-04T10:42:05.325Z,9.747674
2023-05-04T10:43:05.328Z,9.747788
2023-05-04T10:44:05.295Z,9.747499
2023-05-04T10:45:05.402Z,9.747595
2023-05-04T10:46:05.320Z,9.747806
2023-05-04T10:47:05.308Z,9.747457
2023-05-04T10:48:05.348Z,9.747419
2023-05-04T10:49:05.252Z,9.747425
2023-05-04T10:50:05.227Z,9.747591
2023-05-04T10:51:05.214Z,9.747428
2023-05-04T10:52:05.247Z,9.747478
2023-05-04T10:53:05.290Z,9.747421
2023-05-04T10:54:05.211Z,9.747328
2023-05-04T10:55:05.387Z,9.747408
2023-05-04T10:56:05.218Z,9.747341
2023-05-04T10:57:05.194Z,9.747407
2023-05-04T10:58:05.171Z,9.747318
2023-05-04T10:59:05.170Z,9.747289
2023-05-04T11:00:05.166Z,9.747396
2023-05-04T11:01:05.252Z,9.747425
2023-05-04T11:02:05.187Z,9.747440
2023-05-04T11:03:06.272Z,9.747423
2023-05-04T11:04:05.118Z,9.747431
2023-05-04T11:05:05.312Z,9.747504
2023-05-04T11:06:05.138Z,9.747355
2023-05-04T11:07:05.122Z,9.747510
2023-05-04T11:08:05.107Z,9.747488
2023-05-04T11:09:05.088Z,9.747551
2023-05-04T11:10:05.238Z,9.747525
2023-05-04T11:11:05.092Z,9.747488
2023-05-04T11:12:06.061Z,9.747344
2023-05-04T11:13:06.871Z,9.747400
2023-05-04T11:14:06.062Z,9.747361
2023-05-04T11:15:05.307Z,9.747370
2023-05-04T11:16:05.070Z,9.747430
2023-05-04T11:17:07.343Z,9.747430
2023-05-04T11:18:06.052Z,9.747305
2023-05-04T11:19:05.023Z,9.747410
2023-05-04T11:20:05.036Z,9.747477
2023-05-04T11:21:05.000Z,9.747506
2023-05-04T11:22:05.016Z,9.747547
2023-05-04T11:23:04.986Z,9.747481
2023-05-04T11:24:05.007Z,9.747473
2023-05-04T11:25:05.087Z,9.747429
2023-05-04T11:26:04.962Z,9.747416
2023-05-04T11:27:04.976Z,9.747428
2023-05-04T11:28:04.960Z,9.747490
2023-05-04T11:29:04.989Z,9.747523
2023-05-04T11:30:04.959Z,9.747490
2023-05-04T11:31:04.949Z,9.747377
2023-05-04T11:32:04.914Z,9.747379
2023-05-04T11:33:04.978Z,9.747396
2023-05-04T11:34:04.928Z,9.747455
2023-05-04T11:35:05.200Z,9.747644
2023-05-04T11:36:04.890Z,9.747622
2023-05-04T11:37:37.730Z,9.747549
2023-05-04T11:38:04.865Z,9.747487
2023-05-04T11:39:04.898Z,9.747481
2023-05-04T11:40:04.858Z,9.747366
2023-05-04T11:41:04.844Z,9.747391
2023-05-04T11:42:04.832Z,9.747422
2023-05-04T11:43:04.856Z,9.747563
2023-05-04T11:44:04.848Z,9.747549